sensor_id;sensor_type;location;lat;lon;timestamp;P1;durP1;ratioP1;P2;durP2;ratioP2
25263;SDS011;13211;51.796;5.808;2023-02-03T00:06:31;29.83;;;3.75;;
25263;SDS011;13211;51.796;5.808;2023-02-03T00:08:59;23.30;;;3.42;;
25263;SDS011;13211;51.796;5.808;2023-02-03T00:11:30;22.25;;;3.35;;
25263;SDS011;13211;51.796;5.808;2023-02-03T00:13:58;23.92;;;3.58;;
25263;SDS011;13211;51.796;5.808;2023-02-03T00:16:26;19.83;;;3.70;;
25263;SDS011;13211;51.796;5.808;2023-02-03T00:18:53;23.45;;;3.92;;
25263;SDS011;13211;51.796;5.808;2023-02-03T00:21:21;20.05;;;3.30;;
25263;SDS011;13211;51.796;5.808;2023-02-03T00:23:48;24.55;;;3.47;;
25263;SDS011;13211;51.796;5.808;2023-02-03T00:26:16;24.55;;;2.90;;
25263;SDS011;13211;51.796;5.808;2023-02-03T00:28:45;19.70;;;3.00;;
25263;SDS011;13211;51.796;5.808;2023-02-03T00:31:17;17.42;;;3.08;;
25263;SDS011;13211;51.796;5.808;2023-02-03T00:33:46;20.00;;;3.10;;
25263;SDS011;13211;51.796;5.808;2023-02-03T00:36:16;17.50;;;3.78;;
25263;SDS011;13211;51.796;5.808;2023-02-03T00:38:43;24.77;;;3.05;;
25263;SDS011;13211;51.796;5.808;2023-02-03T00:41:11;25.67;;;3.38;;
25263;SDS011;13211;51.796;5.808;2023-02-03T00:43:41;27.63;;;3.67;;
25263;SDS011;13211;51.796;5.808;2023-02-03T00:46:10;19.48;;;3.38;;
25263;SDS011;13211;51.796;5.808;2023-02-03T00:48:38;28.98;;;3.60;;
25263;SDS011;13211;51.796;5.808;2023-02-03T00:51:05;18.75;;;3.00;;
25263;SDS011;13211;51.796;5.808;2023-02-03T00:53:33;22.30;;;3.30;;
25263;SDS011;13211;51.796;5.808;2023-02-03T00:56:01;23.95;;;3.28;;
25263;SDS011;13211;51.796;5.808;2023-02-03T00:58:29;21.95;;;4.20;;
25263;SDS011;13211;51.796;5.808;2023-02-03T01:03:33;28.63;;;3.30;;
25263;SDS011;13211;51.796;5.808;2023-02-03T01:06:11;25.77;;;3.80;;
25263;SDS011;13211;51.796;5.808;2023-02-03T01:08:40;22.90;;;3.47;;
25263;SDS011;13211;51.796;5.808;2023-02-03T01:11:08;19.17;;;3.17;;
25263;SDS011;13211;51.796;5.808;2023-02-03T01:13:47;24.23;;;3.20;;
25263;SDS011;13211;51.796;5.808;2023-02-03T01:16:17;19.95;;;3.28;;
25263;SDS011;13211;51.796;5.808;2023-02-03T01:18:45;20.45;;;3.25;;
25263;SDS011;13211;51.796;5.808;2023-02-03T01:21:18;22.55;;;3.85;;
25263;SDS011;13211;51.796;5.808;2023-02-03T01:23:46;23.67;;;3.42;;
25263;SDS011;13211;51.796;5.808;2023-02-03T01:26:15;26.38;;;3.75;;
25263;SDS011;13211;51.796;5.808;2023-02-03T01:28:43;26.42;;;4.13;;
25263;SDS011;13211;51.796;5.808;2023-02-03T01:31:15;29.25;;;3.92;;
25263;SDS011;13211;51.796;5.808;2023-02-03T01:33:44;19.02;;;3.45;;
25263;SDS011;13211;51.796;5.808;2023-02-03T01:36:14;29.77;;;3.35;;
25263;SDS011;13211;51.796;5.808;2023-02-03T01:38:43;25.10;;;3.15;;
25263;SDS011;13211;51.796;5.808;2023-02-03T01:41:16;14.93;;;3.15;;
25263;SDS011;13211;51.796;5.808;2023-02-03T01:43:45;23.98;;;2.92;;
25263;SDS011;13211;51.796;5.808;2023-02-03T01:48:47;11.07;;;2.53;;
25263;SDS011;13211;51.796;5.808;2023-02-03T01:51:16;18.58;;;2.47;;
25263;SDS011;13211;51.796;5.808;2023-02-03T01:53:45;25.75;;;4.03;;
25263;SDS011;13211;51.796;5.808;2023-02-03T01:56:13;15.27;;;2.60;;
25263;SDS011;13211;51.796;5.808;2023-02-03T01:58:40;20.55;;;2.72;;
25263;SDS011;13211;51.796;5.808;2023-02-03T02:01:11;23.83;;;2.58;;
25263;SDS011;13211;51.796;5.808;2023-02-03T02:03:44;18.67;;;2.88;;
25263;SDS011;13211;51.796;5.808;2023-02-03T02:06:14;22.83;;;2.92;;
25263;SDS011;13211;51.796;5.808;2023-02-03T02:08:43;19.92;;;3.40;;
25263;SDS011;13211;51.796;5.808;2023-02-03T02:11:12;17.97;;;2.77;;
25263;SDS011;13211;51.796;5.808;2023-02-03T02:13:41;13.52;;;2.63;;
25263;SDS011;13211;51.796;5.808;2023-02-03T02:16:14;12.52;;;2.60;;
25263;SDS011;13211;51.796;5.808;2023-02-03T02:19:10;13.77;;;2.70;;
25263;SDS011;13211;51.796;5.808;2023-02-03T02:32:48;18.10;;;2.55;;
25263;SDS011;13211;51.796;5.808;2023-02-03T02:37:59;13.35;;;2.40;;
25263;SDS011;13211;51.796;5.808;2023-02-03T02:40:35;11.77;;;2.50;;
25263;SDS011;13211;51.796;5.808;2023-02-03T02:45:51;10.68;;;2.08;;
25263;SDS011;13211;51.796;5.808;2023-02-03T02:48:25;22.80;;;2.70;;
25263;SDS011;13211;51.796;5.808;2023-02-03T02:50:55;21.60;;;3.03;;
25263;SDS011;13211;51.796;5.808;2023-02-03T02:53:25;13.35;;;2.70;;
25263;SDS011;13211;51.796;5.808;2023-02-03T02:55:54;17.33;;;2.53;;
25263;SDS011;13211;51.796;5.808;2023-02-03T02:58:23;17.73;;;2.40;;
25263;SDS011;13211;51.796;5.808;2023-02-03T03:00:53;16.98;;;2.58;;
25263;SDS011;13211;51.796;5.808;2023-02-03T03:03:21;13.45;;;2.65;;
25263;SDS011;13211;51.796;5.808;2023-02-03T03:05:51;10.40;;;2.78;;
25263;SDS011;13211;51.796;5.808;2023-02-03T03:08:28;15.80;;;2.90;;
25263;SDS011;13211;51.796;5.808;2023-02-03T03:10:57;22.75;;;2.80;;
25263;SDS011;13211;51.796;5.808;2023-02-03T03:13:26;17.80;;;3.13;;
25263;SDS011;13211;51.796;5.808;2023-02-03T03:15:57;16.10;;;2.50;;
25263;SDS011;13211;51.796;5.808;2023-02-03T03:20:58;16.55;;;2.65;;
25263;SDS011;13211;51.796;5.808;2023-02-03T03:23:33;21.58;;;3.00;;
25263;SDS011;13211;51.796;5.808;2023-02-03T03:29:06;13.50;;;2.50;;
25263;SDS011;13211;51.796;5.808;2023-02-03T03:31:36;23.92;;;3.20;;
25263;SDS011;13211;51.796;5.808;2023-02-03T03:34:04;19.55;;;2.53;;
25263;SDS011;13211;51.796;5.808;2023-02-03T03:39:10;16.85;;;2.33;;
25263;SDS011;13211;51.796;5.808;2023-02-03T03:41:43;11.90;;;3.17;;
25263;SDS011;13211;51.796;5.808;2023-02-03T03:44:12;15.02;;;2.60;;
25263;SDS011;13211;51.796;5.808;2023-02-03T03:46:49;11.93;;;2.42;;
25263;SDS011;13211;51.796;5.808;2023-02-03T03:49:18;18.73;;;2.97;;
25263;SDS011;13211;51.796;5.808;2023-02-03T03:51:47;14.40;;;2.65;;
25263;SDS011;13211;51.796;5.808;2023-02-03T03:54:17;13.90;;;2.67;;
25263;SDS011;13211;51.796;5.808;2023-02-03T03:57:08;14.45;;;2.20;;
25263;SDS011;13211;51.796;5.808;2023-02-03T03:59:34;14.57;;;2.63;;
25263;SDS011;13211;51.796;5.808;2023-02-03T04:02:05;15.82;;;2.75;;
25263;SDS011;13211;51.796;5.808;2023-02-03T04:04:33;13.88;;;1.98;;
25263;SDS011;13211;51.796;5.808;2023-02-03T04:07:02;17.55;;;2.65;;
25263;SDS011;13211;51.796;5.808;2023-02-03T04:09:30;13.90;;;2.45;;
25263;SDS011;13211;51.796;5.808;2023-02-03T04:11:58;15.35;;;2.63;;
25263;SDS011;13211;51.796;5.808;2023-02-03T04:14:29;15.85;;;2.72;;
25263;SDS011;13211;51.796;5.808;2023-02-03T04:16:57;13.35;;;2.90;;
25263;SDS011;13211;51.796;5.808;2023-02-03T04:19:25;14.48;;;2.33;;
25263;SDS011;13211;51.796;5.808;2023-02-03T04:21:56;20.33;;;2.97;;
25263;SDS011;13211;51.796;5.808;2023-02-03T04:24:24;17.48;;;2.28;;
25263;SDS011;13211;51.796;5.808;2023-02-03T04:26:51;17.55;;;2.33;;
25263;SDS011;13211;51.796;5.808;2023-02-03T04:29:19;16.30;;;2.85;;
25263;SDS011;13211;51.796;5.808;2023-02-03T04:31:47;18.95;;;2.70;;
25263;SDS011;13211;51.796;5.808;2023-02-03T04:34:15;16.30;;;2.05;;
25263;SDS011;13211;51.796;5.808;2023-02-03T04:36:42;14.68;;;2.15;;
25263;SDS011;13211;51.796;5.808;2023-02-03T04:39:11;18.08;;;2.25;;
25263;SDS011;13211;51.796;5.808;2023-02-03T04:41:41;15.90;;;2.42;;
25263;SDS011;13211;51.796;5.808;2023-02-03T04:44:09;16.33;;;2.55;;
25263;SDS011;13211;51.796;5.808;2023-02-03T04:46:37;16.83;;;2.88;;
25263;SDS011;13211;51.796;5.808;2023-02-03T04:49:04;20.00;;;3.35;;
25263;SDS011;13211;51.796;5.808;2023-02-03T04:51:32;16.70;;;2.50;;
25263;SDS011;13211;51.796;5.808;2023-02-03T04:54:00;13.98;;;2.00;;
25263;SDS011;13211;51.796;5.808;2023-02-03T04:56:27;22.20;;;2.38;;
25263;SDS011;13211;51.796;5.808;2023-02-03T04:58:55;21.02;;;2.60;;
25263;SDS011;13211;51.796;5.808;2023-02-03T05:01:23;18.08;;;2.30;;
25263;SDS011;13211;51.796;5.808;2023-02-03T05:03:51;14.25;;;2.13;;
25263;SDS011;13211;51.796;5.808;2023-02-03T05:06:26;18.73;;;3.05;;
25263;SDS011;13211;51.796;5.808;2023-02-03T05:08:58;16.77;;;2.30;;
25263;SDS011;13211;51.796;5.808;2023-02-03T05:11:26;14.20;;;2.08;;
25263;SDS011;13211;51.796;5.808;2023-02-03T05:13:53;16.27;;;2.13;;
25263;SDS011;13211;51.796;5.808;2023-02-03T05:16:23;14.95;;;2.00;;
25263;SDS011;13211;51.796;5.808;2023-02-03T05:18:50;18.50;;;2.40;;
25263;SDS011;13211;51.796;5.808;2023-02-03T05:21:18;9.30;;;1.92;;
25263;SDS011;13211;51.796;5.808;2023-02-03T05:23:46;15.07;;;2.20;;
25263;SDS011;13211;51.796;5.808;2023-02-03T05:26:14;18.00;;;2.35;;
25263;SDS011;13211;51.796;5.808;2023-02-03T05:28:41;8.75;;;1.90;;
25263;SDS011;13211;51.796;5.808;2023-02-03T05:31:10;13.63;;;2.30;;
25263;SDS011;13211;51.796;5.808;2023-02-03T05:33:40;14.23;;;2.40;;
25263;SDS011;13211;51.796;5.808;2023-02-03T05:36:07;14.07;;;2.55;;
25263;SDS011;13211;51.796;5.808;2023-02-03T05:38:36;15.48;;;2.08;;
25263;SDS011;13211;51.796;5.808;2023-02-03T05:41:03;18.77;;;2.95;;
25263;SDS011;13211;51.796;5.808;2023-02-03T05:43:51;17.73;;;2.65;;
25263;SDS011;13211;51.796;5.808;2023-02-03T05:46:19;13.75;;;2.88;;
25263;SDS011;13211;51.796;5.808;2023-02-03T05:48:47;17.45;;;2.60;;
25263;SDS011;13211;51.796;5.808;2023-02-03T05:51:14;15.57;;;2.35;;
25263;SDS011;13211;51.796;5.808;2023-02-03T05:53:42;11.85;;;2.42;;
25263;SDS011;13211;51.796;5.808;2023-02-03T05:56:10;20.25;;;2.42;;
25263;SDS011;13211;51.796;5.808;2023-02-03T05:58:39;12.15;;;2.50;;
25263;SDS011;13211;51.796;5.808;2023-02-03T06:01:07;20.40;;;2.80;;
25263;SDS011;13211;51.796;5.808;2023-02-03T06:03:34;12.57;;;2.67;;
25263;SDS011;13211;51.796;5.808;2023-02-03T06:06:02;17.90;;;3.15;;
25263;SDS011;13211;51.796;5.808;2023-02-03T06:08:30;14.98;;;2.60;;
25263;SDS011;13211;51.796;5.808;2023-02-03T06:10:58;12.60;;;1.98;;
25263;SDS011;13211;51.796;5.808;2023-02-03T06:13:26;16.08;;;2.78;;
25263;SDS011;13211;51.796;5.808;2023-02-03T06:15:54;22.02;;;2.58;;
25263;SDS011;13211;51.796;5.808;2023-02-03T06:18:23;17.00;;;2.40;;
25263;SDS011;13211;51.796;5.808;2023-02-03T06:20:51;11.00;;;1.90;;
25263;SDS011;13211;51.796;5.808;2023-02-03T06:23:22;15.40;;;2.05;;
25263;SDS011;13211;51.796;5.808;2023-02-03T06:25:51;20.55;;;2.35;;
25263;SDS011;13211;51.796;5.808;2023-02-03T06:28:19;12.30;;;2.40;;
25263;SDS011;13211;51.796;5.808;2023-02-03T06:30:50;18.88;;;3.60;;
25263;SDS011;13211;51.796;5.808;2023-02-03T06:33:21;13.32;;;2.35;;
25263;SDS011;13211;51.796;5.808;2023-02-03T06:35:49;19.42;;;2.58;;
25263;SDS011;13211;51.796;5.808;2023-02-03T06:38:17;17.73;;;3.00;;
25263;SDS011;13211;51.796;5.808;2023-02-03T06:40:50;16.40;;;3.00;;
25263;SDS011;13211;51.796;5.808;2023-02-03T06:43:24;12.60;;;2.75;;
25263;SDS011;13211;51.796;5.808;2023-02-03T06:45:52;16.90;;;2.15;;
25263;SDS011;13211;51.796;5.808;2023-02-03T06:48:20;18.42;;;2.92;;
25263;SDS011;13211;51.796;5.808;2023-02-03T06:50:49;19.80;;;2.45;;
25263;SDS011;13211;51.796;5.808;2023-02-03T06:53:18;20.15;;;2.55;;
25263;SDS011;13211;51.796;5.808;2023-02-03T06:55:46;22.83;;;3.15;;
25263;SDS011;13211;51.796;5.808;2023-02-03T06:58:14;16.48;;;2.58;;
25263;SDS011;13211;51.796;5.808;2023-02-03T07:00:42;23.63;;;3.10;;
25263;SDS011;13211;51.796;5.808;2023-02-03T07:03:10;21.65;;;2.80;;
25263;SDS011;13211;51.796;5.808;2023-02-03T07:05:39;16.40;;;3.50;;
25263;SDS011;13211;51.796;5.808;2023-02-03T07:08:07;16.85;;;3.00;;
25263;SDS011;13211;51.796;5.808;2023-02-03T07:10:34;20.83;;;2.78;;
25263;SDS011;13211;51.796;5.808;2023-02-03T07:13:03;17.40;;;2.45;;
25263;SDS011;13211;51.796;5.808;2023-02-03T07:15:34;16.83;;;2.47;;
25263;SDS011;13211;51.796;5.808;2023-02-03T07:18:02;16.90;;;2.97;;
25263;SDS011;13211;51.796;5.808;2023-02-03T07:23:01;19.00;;;2.85;;
25263;SDS011;13211;51.796;5.808;2023-02-03T07:25:28;14.75;;;2.80;;
25263;SDS011;13211;51.796;5.808;2023-02-03T07:27:57;12.70;;;3.10;;
25263;SDS011;13211;51.796;5.808;2023-02-03T07:30:25;20.08;;;3.03;;
25263;SDS011;13211;51.796;5.808;2023-02-03T07:32:53;24.30;;;3.20;;
25263;SDS011;13211;51.796;5.808;2023-02-03T07:35:21;20.00;;;3.50;;
25263;SDS011;13211;51.796;5.808;2023-02-03T07:37:48;17.25;;;3.10;;
25263;SDS011;13211;51.796;5.808;2023-02-03T07:40:16;18.83;;;3.95;;
25263;SDS011;13211;51.796;5.808;2023-02-03T07:42:45;26.33;;;4.10;;
25263;SDS011;13211;51.796;5.808;2023-02-03T07:45:17;18.90;;;3.75;;
25263;SDS011;13211;51.796;5.808;2023-02-03T07:47:45;25.38;;;3.33;;
25263;SDS011;13211;51.796;5.808;2023-02-03T07:50:13;17.50;;;2.90;;
25263;SDS011;13211;51.796;5.808;2023-02-03T07:52:41;21.40;;;3.22;;
25263;SDS011;13211;51.796;5.808;2023-02-03T07:55:14;17.17;;;3.10;;
25263;SDS011;13211;51.796;5.808;2023-02-03T07:57:41;20.52;;;3.75;;
25263;SDS011;13211;51.796;5.808;2023-02-03T08:00:11;21.60;;;3.13;;
25263;SDS011;13211;51.796;5.808;2023-02-03T08:02:42;15.93;;;2.75;;
25263;SDS011;13211;51.796;5.808;2023-02-03T08:05:12;28.90;;;4.68;;
25263;SDS011;13211;51.796;5.808;2023-02-03T08:07:43;23.50;;;4.20;;
25263;SDS011;13211;51.796;5.808;2023-02-03T08:10:12;24.98;;;3.63;;
25263;SDS011;13211;51.796;5.808;2023-02-03T08:12:42;26.05;;;3.65;;
25263;SDS011;13211;51.796;5.808;2023-02-03T08:15:13;21.60;;;3.33;;
25263;SDS011;13211;51.796;5.808;2023-02-03T08:17:42;19.15;;;3.20;;
25263;SDS011;13211;51.796;5.808;2023-02-03T08:20:11;27.23;;;3.63;;
25263;SDS011;13211;51.796;5.808;2023-02-03T08:22:41;20.20;;;2.90;;
25263;SDS011;13211;51.796;5.808;2023-02-03T08:25:13;13.32;;;2.63;;
25263;SDS011;13211;51.796;5.808;2023-02-03T08:27:41;19.98;;;3.22;;
25263;SDS011;13211;51.796;5.808;2023-02-03T08:30:10;19.55;;;3.13;;
25263;SDS011;13211;51.796;5.808;2023-02-03T08:32:41;18.40;;;3.05;;
25263;SDS011;13211;51.796;5.808;2023-02-03T08:35:11;24.15;;;3.75;;
25263;SDS011;13211;51.796;5.808;2023-02-03T08:37:39;18.23;;;3.75;;
25263;SDS011;13211;51.796;5.808;2023-02-03T08:40:07;30.05;;;3.65;;
25263;SDS011;13211;51.796;5.808;2023-02-03T08:42:35;20.35;;;4.50;;
25263;SDS011;13211;51.796;5.808;2023-02-03T08:45:05;16.67;;;3.25;;
25263;SDS011;13211;51.796;5.808;2023-02-03T08:47:34;18.63;;;4.10;;
25263;SDS011;13211;51.796;5.808;2023-02-03T08:50:03;22.23;;;3.55;;
25263;SDS011;13211;51.796;5.808;2023-02-03T08:52:32;28.80;;;3.07;;
25263;SDS011;13211;51.796;5.808;2023-02-03T08:54:59;19.20;;;3.17;;
25263;SDS011;13211;51.796;5.808;2023-02-03T08:59:57;21.42;;;3.20;;
25263;SDS011;13211;51.796;5.808;2023-02-03T09:02:25;25.17;;;3.75;;
25263;SDS011;13211;51.796;5.808;2023-02-03T09:04:53;19.48;;;4.05;;
25263;SDS011;13211;51.796;5.808;2023-02-03T09:07:20;19.70;;;3.20;;
25263;SDS011;13211;51.796;5.808;2023-02-03T09:09:51;25.95;;;3.38;;
25263;SDS011;13211;51.796;5.808;2023-02-03T09:12:19;21.88;;;3.60;;
25263;SDS011;13211;51.796;5.808;2023-02-03T09:14:47;20.17;;;3.28;;
25263;SDS011;13211;51.796;5.808;2023-02-03T09:17:14;28.98;;;3.85;;
25263;SDS011;13211;51.796;5.808;2023-02-03T09:19:42;16.23;;;3.33;;
25263;SDS011;13211;51.796;5.808;2023-02-03T09:22:10;19.65;;;2.95;;
25263;SDS011;13211;51.796;5.808;2023-02-03T09:24:42;24.63;;;3.60;;
25263;SDS011;13211;51.796;5.808;2023-02-03T09:27:11;17.63;;;3.65;;
25263;SDS011;13211;51.796;5.808;2023-02-03T09:29:39;28.50;;;3.28;;
25263;SDS011;13211;51.796;5.808;2023-02-03T09:32:07;25.95;;;3.45;;
25263;SDS011;13211;51.796;5.808;2023-02-03T09:34:36;16.15;;;3.55;;
25263;SDS011;13211;51.796;5.808;2023-02-03T09:37:06;31.50;;;4.35;;
25263;SDS011;13211;51.796;5.808;2023-02-03T09:39:34;16.95;;;3.17;;
25263;SDS011;13211;51.796;5.808;2023-02-03T09:47:02;20.83;;;3.30;;
25263;SDS011;13211;51.796;5.808;2023-02-03T09:52:36;18.67;;;3.38;;
25263;SDS011;13211;51.796;5.808;2023-02-03T09:57:43;29.23;;;5.43;;
25263;SDS011;13211;51.796;5.808;2023-02-03T10:05:26;27.42;;;3.13;;
25263;SDS011;13211;51.796;5.808;2023-02-03T10:18:25;24.80;;;3.45;;
25263;SDS011;13211;51.796;5.808;2023-02-03T10:20:56;27.55;;;3.30;;
25263;SDS011;13211;51.796;5.808;2023-02-03T10:23:35;24.27;;;3.42;;
25263;SDS011;13211;51.796;5.808;2023-02-03T10:26:05;21.65;;;3.17;;
25263;SDS011;13211;51.796;5.808;2023-02-03T10:28:56;20.25;;;2.72;;
25263;SDS011;13211;51.796;5.808;2023-02-03T10:31:23;17.30;;;2.90;;
25263;SDS011;13211;51.796;5.808;2023-02-03T10:33:58;16.23;;;2.80;;
25263;SDS011;13211;51.796;5.808;2023-02-03T10:36:43;19.42;;;3.72;;
25263;SDS011;13211;51.796;5.808;2023-02-03T10:42:00;19.42;;;2.78;;
25263;SDS011;13211;51.796;5.808;2023-02-03T10:44:34;15.98;;;3.15;;
25263;SDS011;13211;51.796;5.808;2023-02-03T10:47:09;25.80;;;3.25;;
25263;SDS011;13211;51.796;5.808;2023-02-03T10:49:40;18.95;;;3.40;;
25263;SDS011;13211;51.796;5.808;2023-02-03T10:52:22;22.17;;;3.47;;
25263;SDS011;13211;51.796;5.808;2023-02-03T10:54:51;17.75;;;2.90;;
25263;SDS011;13211;51.796;5.808;2023-02-03T10:57:19;29.13;;;5.25;;
25263;SDS011;13211;51.796;5.808;2023-02-03T10:59:47;27.67;;;2.95;;
25263;SDS011;13211;51.796;5.808;2023-02-03T11:07:37;20.45;;;3.17;;
25263;SDS011;13211;51.796;5.808;2023-02-03T11:10:21;25.05;;;3.47;;
25263;SDS011;13211;51.796;5.808;2023-02-03T11:15:43;20.45;;;3.25;;
25263;SDS011;13211;51.796;5.808;2023-02-03T11:18:34;24.10;;;3.63;;
25263;SDS011;13211;51.796;5.808;2023-02-03T11:20:59;21.73;;;2.95;;
25263;SDS011;13211;51.796;5.808;2023-02-03T11:23:26;18.02;;;2.65;;
25263;SDS011;13211;51.796;5.808;2023-02-03T11:25:54;24.23;;;3.15;;
25263;SDS011;13211;51.796;5.808;2023-02-03T11:28:22;18.83;;;3.35;;
25263;SDS011;13211;51.796;5.808;2023-02-03T11:30:56;20.58;;;3.10;;
25263;SDS011;13211;51.796;5.808;2023-02-03T11:33:25;21.13;;;2.90;;
25263;SDS011;13211;51.796;5.808;2023-02-03T11:35:55;16.15;;;2.90;;
25263;SDS011;13211;51.796;5.808;2023-02-03T11:38:33;23.70;;;3.00;;
25263;SDS011;13211;51.796;5.808;2023-02-03T11:41:13;25.30;;;3.10;;
25263;SDS011;13211;51.796;5.808;2023-02-03T11:43:41;21.40;;;3.20;;
25263;SDS011;13211;51.796;5.808;2023-02-03T11:46:09;18.52;;;3.63;;
25263;SDS011;13211;51.796;5.808;2023-02-03T11:51:29;15.45;;;2.70;;
25263;SDS011;13211;51.796;5.808;2023-02-03T11:54:14;16.88;;;2.67;;
25263;SDS011;13211;51.796;5.808;2023-02-03T12:10:01;10.93;;;2.30;;
25263;SDS011;13211;51.796;5.808;2023-02-03T12:12:44;15.05;;;2.47;;
25263;SDS011;13211;51.796;5.808;2023-02-03T12:25:56;7.88;;;2.35;;
25263;SDS011;13211;51.796;5.808;2023-02-03T12:31:03;10.05;;;2.30;;
25263;SDS011;13211;51.796;5.808;2023-02-03T12:33:46;13.27;;;2.58;;
25263;SDS011;13211;51.796;5.808;2023-02-03T12:41:25;6.63;;;2.47;;
25263;SDS011;13211;51.796;5.808;2023-02-03T12:43:57;8.55;;;2.38;;
25263;SDS011;13211;51.796;5.808;2023-02-03T12:46:36;12.02;;;3.10;;
25263;SDS011;13211;51.796;5.808;2023-02-03T12:51:53;18.17;;;3.42;;
25263;SDS011;13211;51.796;5.808;2023-02-03T12:59:57;10.30;;;2.33;;
25263;SDS011;13211;51.796;5.808;2023-02-03T13:02:28;11.85;;;2.38;;
25263;SDS011;13211;51.796;5.808;2023-02-03T13:05:04;17.25;;;2.95;;
25263;SDS011;13211;51.796;5.808;2023-02-03T13:08:08;9.82;;;2.38;;
25263;SDS011;13211;51.796;5.808;2023-02-03T13:13:02;8.73;;;2.28;;
25263;SDS011;13211;51.796;5.808;2023-02-03T13:15:34;13.57;;;2.60;;
25263;SDS011;13211;51.796;5.808;2023-02-03T13:18:09;8.75;;;2.38;;
25263;SDS011;13211;51.796;5.808;2023-02-03T13:20:41;14.18;;;3.35;;
25263;SDS011;13211;51.796;5.808;2023-02-03T13:23:11;6.40;;;2.50;;
25263;SDS011;13211;51.796;5.808;2023-02-03T13:41:47;14.68;;;3.00;;
25263;SDS011;13211;51.796;5.808;2023-02-03T13:44:18;19.08;;;2.95;;
25263;SDS011;13211;51.796;5.808;2023-02-03T13:46:48;13.82;;;2.80;;
25263;SDS011;13211;51.796;5.808;2023-02-03T13:49:28;12.05;;;2.90;;
25263;SDS011;13211;51.796;5.808;2023-02-03T13:51:57;15.48;;;3.47;;
25263;SDS011;13211;51.796;5.808;2023-02-03T13:54:33;15.63;;;2.97;;
25263;SDS011;13211;51.796;5.808;2023-02-03T13:57:14;22.87;;;3.47;;
25263;SDS011;13211;51.796;5.808;2023-02-03T13:59:45;20.60;;;3.08;;
25263;SDS011;13211;51.796;5.808;2023-02-03T14:12:58;18.00;;;2.90;;
25263;SDS011;13211;51.796;5.808;2023-02-03T14:18:00;26.35;;;3.63;;
25263;SDS011;13211;51.796;5.808;2023-02-03T14:25:47;17.77;;;3.22;;
25263;SDS011;13211;51.796;5.808;2023-02-03T14:28:17;24.00;;;3.85;;
25263;SDS011;13211;51.796;5.808;2023-02-03T14:31:00;25.45;;;3.83;;
25263;SDS011;13211;51.796;5.808;2023-02-03T14:39:04;25.90;;;3.88;;
25263;SDS011;13211;51.796;5.808;2023-02-03T15:05:54;30.05;;;3.70;;
25263;SDS011;13211;51.796;5.808;2023-02-03T15:08:36;25.23;;;3.20;;
25263;SDS011;13211;51.796;5.808;2023-02-03T15:11:20;19.75;;;3.03;;
25263;SDS011;13211;51.796;5.808;2023-02-03T15:13:49;25.20;;;3.60;;
25263;SDS011;13211;51.796;5.808;2023-02-03T15:16:18;25.77;;;3.47;;
25263;SDS011;13211;51.796;5.808;2023-02-03T15:18:47;19.40;;;3.45;;
25263;SDS011;13211;51.796;5.808;2023-02-03T15:21:20;27.38;;;3.83;;
25263;SDS011;13211;51.796;5.808;2023-02-03T15:23:50;26.40;;;3.33;;
25263;SDS011;13211;51.796;5.808;2023-02-03T15:26:22;29.73;;;4.00;;
25263;SDS011;13211;51.796;5.808;2023-02-03T15:28:54;35.35;;;4.38;;
25263;SDS011;13211;51.796;5.808;2023-02-03T15:31:30;28.60;;;3.72;;
25263;SDS011;13211;51.796;5.808;2023-02-03T15:34:01;21.55;;;3.05;;
25263;SDS011;13211;51.796;5.808;2023-02-03T15:36:41;24.58;;;3.55;;
25263;SDS011;13211;51.796;5.808;2023-02-03T15:39:13;22.88;;;4.03;;
25263;SDS011;13211;51.796;5.808;2023-02-03T15:41:45;33.13;;;3.58;;
25263;SDS011;13211;51.796;5.808;2023-02-03T15:46:42;29.05;;;3.47;;
25263;SDS011;13211;51.796;5.808;2023-02-03T15:49:13;29.77;;;3.33;;
25263;SDS011;13211;51.796;5.808;2023-02-03T15:51:48;27.60;;;4.22;;
25263;SDS011;13211;51.796;5.808;2023-02-03T15:54:21;29.45;;;3.47;;
25263;SDS011;13211;51.796;5.808;2023-02-03T15:56:57;25.20;;;4.13;;
25263;SDS011;13211;51.796;5.808;2023-02-03T15:59:45;30.58;;;4.25;;
25263;SDS011;13211;51.796;5.808;2023-02-03T16:02:19;22.77;;;4.20;;
25263;SDS011;13211;51.796;5.808;2023-02-03T16:04:48;28.70;;;3.88;;
25263;SDS011;13211;51.796;5.808;2023-02-03T16:07:17;23.42;;;3.75;;
25263;SDS011;13211;51.796;5.808;2023-02-03T16:09:46;26.27;;;3.45;;
25263;SDS011;13211;51.796;5.808;2023-02-03T16:12:26;26.10;;;3.85;;
25263;SDS011;13211;51.796;5.808;2023-02-03T16:14:55;25.50;;;3.70;;
25263;SDS011;13211;51.796;5.808;2023-02-03T16:17:30;30.55;;;3.80;;
25263;SDS011;13211;51.796;5.808;2023-02-03T16:22:47;23.38;;;4.38;;
25263;SDS011;13211;51.796;5.808;2023-02-03T16:25:26;28.23;;;4.35;;
25263;SDS011;13211;51.796;5.808;2023-02-03T16:31:28;29.88;;;4.07;;
25263;SDS011;13211;51.796;5.808;2023-02-03T16:33:50;36.15;;;3.75;;
25263;SDS011;13211;51.796;5.808;2023-02-03T16:36:40;35.55;;;4.88;;
25263;SDS011;13211;51.796;5.808;2023-02-03T16:39:27;27.17;;;3.78;;
25263;SDS011;13211;51.796;5.808;2023-02-03T16:42:19;36.15;;;3.92;;
25263;SDS011;13211;51.796;5.808;2023-02-03T16:45:11;25.85;;;4.03;;
25263;SDS011;13211;51.796;5.808;2023-02-03T16:47:58;24.67;;;3.70;;
25263;SDS011;13211;51.796;5.808;2023-02-03T16:50:46;28.63;;;3.97;;
25263;SDS011;13211;51.796;5.808;2023-02-03T16:53:27;33.05;;;4.53;;
25263;SDS011;13211;51.796;5.808;2023-02-03T16:55:57;33.80;;;4.15;;
25263;SDS011;13211;51.796;5.808;2023-02-03T16:58:24;30.00;;;3.92;;
25263;SDS011;13211;51.796;5.808;2023-02-03T17:00:52;33.78;;;4.20;;
25263;SDS011;13211;51.796;5.808;2023-02-03T17:03:21;29.08;;;3.50;;
25263;SDS011;13211;51.796;5.808;2023-02-03T17:05:49;27.50;;;3.47;;
25263;SDS011;13211;51.796;5.808;2023-02-03T17:08:19;23.27;;;3.95;;
25263;SDS011;13211;51.796;5.808;2023-02-03T17:10:47;34.37;;;4.47;;
25263;SDS011;13211;51.796;5.808;2023-02-03T17:13:21;33.17;;;4.20;;
25263;SDS011;13211;51.796;5.808;2023-02-03T17:15:50;36.05;;;5.00;;
25263;SDS011;13211;51.796;5.808;2023-02-03T17:18:18;20.08;;;3.53;;
25263;SDS011;13211;51.796;5.808;2023-02-03T17:20:46;33.92;;;4.47;;
25263;SDS011;13211;51.796;5.808;2023-02-03T17:23:14;31.08;;;4.40;;
25263;SDS011;13211;51.796;5.808;2023-02-03T17:25:46;35.50;;;4.60;;
25263;SDS011;13211;51.796;5.808;2023-02-03T17:28:14;40.20;;;4.47;;
25263;SDS011;13211;51.796;5.808;2023-02-03T17:30:54;32.55;;;5.18;;
25263;SDS011;13211;51.796;5.808;2023-02-03T17:33:21;36.08;;;4.20;;
25263;SDS011;13211;51.796;5.808;2023-02-03T17:35:57;32.00;;;4.45;;
25263;SDS011;13211;51.796;5.808;2023-02-03T17:38:25;38.25;;;5.13;;
25263;SDS011;13211;51.796;5.808;2023-02-03T17:40:53;32.30;;;4.25;;
25263;SDS011;13211;51.796;5.808;2023-02-03T17:43:39;38.95;;;4.10;;
25263;SDS011;13211;51.796;5.808;2023-02-03T17:46:24;27.65;;;3.72;;
25263;SDS011;13211;51.796;5.808;2023-02-03T17:49:10;38.22;;;4.38;;
25263;SDS011;13211;51.796;5.808;2023-02-03T17:51:56;33.03;;;4.72;;
25263;SDS011;13211;51.796;5.808;2023-02-03T17:54:42;29.33;;;3.75;;
25263;SDS011;13211;51.796;5.808;2023-02-03T17:57:10;27.13;;;4.00;;
25263;SDS011;13211;51.796;5.808;2023-02-03T17:59:37;25.88;;;3.80;;
25263;SDS011;13211;51.796;5.808;2023-02-03T18:02:05;36.35;;;5.40;;
25263;SDS011;13211;51.796;5.808;2023-02-03T18:04:33;35.50;;;4.50;;
25263;SDS011;13211;51.796;5.808;2023-02-03T18:07:01;44.58;;;6.28;;
25263;SDS011;13211;51.796;5.808;2023-02-03T18:09:29;36.75;;;4.57;;
25263;SDS011;13211;51.796;5.808;2023-02-03T18:11:57;22.45;;;4.25;;
25263;SDS011;13211;51.796;5.808;2023-02-03T18:14:25;29.08;;;4.00;;